sensor_id;sensor_type;location;lat;lon;timestamp;temperature;humidity
57652;DHT22;43480;53.116;6.734;2023-04-24T00:01:55;11.40;99.90
57652;DHT22;43480;53.116;6.734;2023-04-24T00:04:21;11.40;99.90
57652;DHT22;43480;53.116;6.734;2023-04-24T00:06:47;11.30;99.90
57652;DHT22;43480;53.116;6.734;2023-04-24T00:09:19;11.20;99.90
57652;DHT22;43480;53.116;6.734;2023-04-24T00:11:44;11.20;99.90
57652;DHT22;43480;53.116;6.734;2023-04-24T00:14:10;11.10;99.90
57652;DHT22;43480;53.116;6.734;2023-04-24T00:16:35;11.10;99.90
57652;DHT22;43480;53.116;6.734;2023-04-24T00:19:01;11.00;99.90
57652;DHT22;43480;53.116;6.734;2023-04-24T00:21:27;10.90;99.90
57652;DHT22;43480;53.116;6.734;2023-04-24T00:23:53;10.90;99.90
57652;DHT22;43480;53.116;6.734;2023-04-24T00:26:18;10.80;99.90
57652;DHT22;43480;53.116;6.734;2023-04-24T00:28:44;10.80;99.90
57652;DHT22;43480;53.116;6.734;2023-04-24T00:31:10;10.70;99.90
57652;DHT22;43480;53.116;6.734;2023-04-24T00:33:35;10.70;99.90
57652;DHT22;43480;53.116;6.734;2023-04-24T00:36:01;10.60;99.90
57652;DHT22;43480;53.116;6.734;2023-04-24T00:38:27;10.60;99.90
57652;DHT22;43480;53.116;6.734;2023-04-24T00:40:53;10.50;99.90
57652;DHT22;43480;53.116;6.734;2023-04-24T00:43:19;10.60;99.90
57652;DHT22;43480;53.116;6.734;2023-04-24T00:45:45;10.60;99.90
57652;DHT22;43480;53.116;6.734;2023-04-24T00:48:11;10.50;99.90
57652;DHT22;43480;53.116;6.734;2023-04-24T00:50:38;10.50;99.90
57652;DHT22;43480;53.116;6.734;2023-04-24T00:53:04;10.50;99.90
57652;DHT22;43480;53.116;6.734;2023-04-24T00:55:30;10.40;99.90
57652;DHT22;43480;53.116;6.734;2023-04-24T00:57:55;10.40;99.90
57652;DHT22;43480;53.116;6.734;2023-04-24T01:00:21;10.30;99.90
57652;DHT22;43480;53.116;6.734;2023-04-24T01:02:48;10.30;99.90
57652;DHT22;43480;53.116;6.734;2023-04-24T01:05:14;10.30;99.90
57652;DHT22;43480;53.116;6.734;2023-04-24T01:07:45;10.30;99.90
57652;DHT22;43480;53.116;6.734;2023-04-24T01:10:14;10.20;99.90
57652;DHT22;43480;53.116;6.734;2023-04-24T01:12:40;10.20;99.90
57652;DHT22;43480;53.116;6.734;2023-04-24T01:15:06;10.20;99.90
57652;DHT22;43480;53.116;6.734;2023-04-24T01:17:32;10.20;99.90
57652;DHT22;43480;53.116;6.734;2023-04-24T01:19:59;10.20;99.90
57652;DHT22;43480;53.116;6.734;2023-04-24T01:22:25;10.20;99.90
57652;DHT22;43480;53.116;6.734;2023-04-24T01:24:52;10.20;99.90
57652;DHT22;43480;53.116;6.734;2023-04-24T01:27:18;10.20;99.90
57652;DHT22;43480;53.116;6.734;2023-04-24T01:29:44;10.20;99.90
57652;DHT22;43480;53.116;6.734;2023-04-24T01:32:10;10.30;99.90
57652;DHT22;43480;53.116;6.734;2023-04-24T01:34:37;10.30;99.90
57652;DHT22;43480;53.116;6.734;2023-04-24T01:37:02;10.30;99.90
57652;DHT22;43480;53.116;6.734;2023-04-24T01:39:28;10.30;99.90
57652;DHT22;43480;53.116;6.734;2023-04-24T01:41:55;10.30;99.90
57652;DHT22;43480;53.116;6.734;2023-04-24T01:44:20;10.40;99.90
57652;DHT22;43480;53.116;6.734;2023-04-24T01:46:46;10.30;99.90
57652;DHT22;43480;53.116;6.734;2023-04-24T01:49:12;10.40;99.90
57652;DHT22;43480;53.116;6.734;2023-04-24T01:51:38;10.40;99.90
57652;DHT22;43480;53.116;6.734;2023-04-24T01:54:03;10.40;99.90
57652;DHT22;43480;53.116;6.734;2023-04-24T01:56:29;10.40;99.90
57652;DHT22;43480;53.116;6.734;2023-04-24T01:58:56;10.40;99.90
57652;DHT22;43480;53.116;6.734;2023-04-24T02:01:24;10.40;99.90
57652;DHT22;43480;53.116;6.734;2023-04-24T02:03:50;10.40;99.90
57652;DHT22;43480;53.116;6.734;2023-04-24T02:06:15;10.30;99.90
57652;DHT22;43480;53.116;6.734;2023-04-24T02:08:41;10.40;99.90
57652;DHT22;43480;53.116;6.734;2023-04-24T02:11:09;10.30;99.90
57652;DHT22;43480;53.116;6.734;2023-04-24T02:13:34;10.40;99.90
57652;DHT22;43480;53.116;6.734;2023-04-24T02:16:00;10.30;99.90
57652;DHT22;43480;53.116;6.734;2023-04-24T02:18:26;10.30;99.90
57652;DHT22;43480;53.116;6.734;2023-04-24T02:20:51;10.30;99.90
57652;DHT22;43480;53.116;6.734;2023-04-24T02:23:17;10.30;99.90
57652;DHT22;43480;53.116;6.734;2023-04-24T02:25:42;10.30;99.90
57652;DHT22;43480;53.116;6.734;2023-04-24T02:28:08;10.30;99.90
57652;DHT22;43480;53.116;6.734;2023-04-24T02:30:34;10.30;99.90
57652;DHT22;43480;53.116;6.734;2023-04-24T02:32:59;10.30;99.90
57652;DHT22;43480;53.116;6.734;2023-04-24T02:35:25;10.30;99.90
57652;DHT22;43480;53.116;6.734;2023-04-24T02:37:51;10.30;99.90
57652;DHT22;43480;53.116;6.734;2023-04-24T02:40:16;10.30;99.90
57652;DHT22;43480;53.116;6.734;2023-04-24T02:42:42;10.30;99.90
57652;DHT22;43480;53.116;6.734;2023-04-24T02:45:08;10.30;99.90
57652;DHT22;43480;53.116;6.734;2023-04-24T02:47:33;10.30;99.90
57652;DHT22;43480;53.116;6.734;2023-04-24T02:49:59;10.30;99.90
57652;DHT22;43480;53.116;6.734;2023-04-24T02:52:25;10.30;99.90
57652;DHT22;43480;53.116;6.734;2023-04-24T02:54:50;10.30;99.90
57652;DHT22;43480;53.116;6.734;2023-04-24T02:57:16;10.30;99.90
57652;DHT22;43480;53.116;6.734;2023-04-24T02:59:41;10.30;99.90
57652;DHT22;43480;53.116;6.734;2023-04-24T03:02:07;10.30;99.90
57652;DHT22;43480;53.116;6.734;2023-04-24T03:04:32;10.30;99.90
57652;DHT22;43480;53.116;6.734;2023-04-24T03:06:58;10.20;99.90
57652;DHT22;43480;53.116;6.734;2023-04-24T03:09:24;10.20;99.90
57652;DHT22;43480;53.116;6.734;2023-04-24T03:11:49;10.20;99.90
57652;DHT22;43480;53.116;6.734;2023-04-24T03:14:16;10.20;99.90
57652;DHT22;43480;53.116;6.734;2023-04-24T03:16:42;10.10;99.90
57652;DHT22;43480;53.116;6.734;2023-04-24T03:19:07;10.10;99.90
57652;DHT22;43480;53.116;6.734;2023-04-24T03:21:33;10.10;99.90
57652;DHT22;43480;53.116;6.734;2023-04-24T03:24:01;10.00;99.90
57652;DHT22;43480;53.116;6.734;2023-04-24T03:26:26;10.00;99.90
57652;DHT22;43480;53.116;6.734;2023-04-24T03:28:52;10.00;99.90
57652;DHT22;43480;53.116;6.734;2023-04-24T03:31:17;10.00;99.90
57652;DHT22;43480;53.116;6.734;2023-04-24T03:33:44;10.00;99.90
57652;DHT22;43480;53.116;6.734;2023-04-24T03:36:09;10.10;99.90
57652;DHT22;43480;53.116;6.734;2023-04-24T03:38:35;10.00;99.90
57652;DHT22;43480;53.116;6.734;2023-04-24T03:41:01;10.10;99.90
57652;DHT22;43480;53.116;6.734;2023-04-24T03:43:27;10.00;99.90
57652;DHT22;43480;53.116;6.734;2023-04-24T03:45:52;10.00;99.90
57652;DHT22;43480;53.116;6.734;2023-04-24T03:48:18;10.00;99.90
57652;DHT22;43480;53.116;6.734;2023-04-24T03:50:44;10.00;99.90
57652;DHT22;43480;53.116;6.734;2023-04-24T03:53:09;10.10;99.90
57652;DHT22;43480;53.116;6.734;2023-04-24T03:55:35;10.00;99.90
57652;DHT22;43480;53.116;6.734;2023-04-24T03:58:01;10.00;99.90
57652;DHT22;43480;53.116;6.734;2023-04-24T04:00:26;10.00;99.90
57652;DHT22;43480;53.116;6.734;2023-04-24T04:02:52;10.00;99.90
57652;DHT22;43480;53.116;6.734;2023-04-24T04:05:18;10.00;99.90
57652;DHT22;43480;53.116;6.734;2023-04-24T04:07:44;10.00;99.90
57652;DHT22;43480;53.116;6.734;2023-04-24T04:10:09;10.00;99.90
57652;DHT22;43480;53.116;6.734;2023-04-24T04:12:35;10.00;99.90
57652;DHT22;43480;53.116;6.734;2023-04-24T04:15:01;10.00;99.90
57652;DHT22;43480;53.116;6.734;2023-04-24T04:17:26;9.90;99.90
57652;DHT22;43480;53.116;6.734;2023-04-24T04:19:52;9.90;99.90
57652;DHT22;43480;53.116;6.734;2023-04-24T04:22:18;10.00;99.90
57652;DHT22;43480;53.116;6.734;2023-04-24T04:24:43;9.90;99.90
57652;DHT22;43480;53.116;6.734;2023-04-24T04:27:09;9.90;99.90
57652;DHT22;43480;53.116;6.734;2023-04-24T04:29:36;9.90;99.90
57652;DHT22;43480;53.116;6.734;2023-04-24T04:32:02;9.90;99.90
57652;DHT22;43480;53.116;6.734;2023-04-24T04:34:27;9.90;99.90
57652;DHT22;43480;53.116;6.734;2023-04-24T04:36:54;9.90;99.90
57652;DHT22;43480;53.116;6.734;2023-04-24T04:39:19;9.90;99.90
57652;DHT22;43480;53.116;6.734;2023-04-24T04:41:45;9.90;99.90
57652;DHT22;43480;53.116;6.734;2023-04-24T04:44:14;9.90;99.90
57652;DHT22;43480;53.116;6.734;2023-04-24T04:46:40;9.90;99.90
57652;DHT22;43480;53.116;6.734;2023-04-24T04:49:07;9.90;99.90
57652;DHT22;43480;53.116;6.734;2023-04-24T04:51:37;9.90;99.90
57652;DHT22;43480;53.116;6.734;2023-04-24T04:54:02;9.90;99.90
57652;DHT22;43480;53.116;6.734;2023-04-24T04:56:28;9.90;99.90
57652;DHT22;43480;53.116;6.734;2023-04-24T04:58:53;9.90;99.90
57652;DHT22;43480;53.116;6.734;2023-04-24T05:01:19;9.90;99.90
57652;DHT22;43480;53.116;6.734;2023-04-24T05:03:44;9.90;99.90
57652;DHT22;43480;53.116;6.734;2023-04-24T05:06:10;9.90;99.90
57652;DHT22;43480;53.116;6.734;2023-04-24T05:08:36;9.90;99.90
57652;DHT22;43480;53.116;6.734;2023-04-24T05:11:01;9.90;99.90
57652;DHT22;43480;53.116;6.734;2023-04-24T05:13:27;9.90;99.90
57652;DHT22;43480;53.116;6.734;2023-04-24T05:15:53;9.90;99.90
57652;DHT22;43480;53.116;6.734;2023-04-24T05:18:18;9.90;99.90
57652;DHT22;43480;53.116;6.734;2023-04-24T05:20:44;9.90;99.90
57652;DHT22;43480;53.116;6.734;2023-04-24T05:23:10;9.90;99.90
57652;DHT22;43480;53.116;6.734;2023-04-24T05:25:37;9.90;99.90
57652;DHT22;43480;53.116;6.734;2023-04-24T05:28:04;9.90;99.90
57652;DHT22;43480;53.116;6.734;2023-04-24T05:30:31;9.90;99.90
57652;DHT22;43480;53.116;6.734;2023-04-24T05:32:56;9.80;99.90
57652;DHT22;43480;53.116;6.734;2023-04-24T05:35:22;9.80;99.90
57652;DHT22;43480;53.116;6.734;2023-04-24T05:37:47;9.80;99.90
57652;DHT22;43480;53.116;6.734;2023-04-24T05:40:13;9.80;99.90
57652;DHT22;43480;53.116;6.734;2023-04-24T05:42:39;9.80;99.90
57652;DHT22;43480;53.116;6.734;2023-04-24T05:45:05;9.80;99.90
57652;DHT22;43480;53.116;6.734;2023-04-24T05:47:31;9.80;99.90
57652;DHT22;43480;53.116;6.734;2023-04-24T05:49:57;9.80;99.90
57652;DHT22;43480;53.116;6.734;2023-04-24T05:52:22;9.70;99.90
57652;DHT22;43480;53.116;6.734;2023-04-24T05:54:48;9.70;99.90
57652;DHT22;43480;53.116;6.734;2023-04-24T05:57:14;9.80;99.90
57652;DHT22;43480;53.116;6.734;2023-04-24T05:59:40;9.70;99.90
57652;DHT22;43480;53.116;6.734;2023-04-24T06:02:06;9.80;99.90
57652;DHT22;43480;53.116;6.734;2023-04-24T06:04:32;9.80;99.90
57652;DHT22;43480;53.116;6.734;2023-04-24T06:06:58;9.80;99.90
57652;DHT22;43480;53.116;6.734;2023-04-24T06:09:25;9.80;99.90
57652;DHT22;43480;53.116;6.734;2023-04-24T06:11:51;9.80;99.90
57652;DHT22;43480;53.116;6.734;2023-04-24T06:14:19;9.80;99.90
57652;DHT22;43480;53.116;6.734;2023-04-24T06:16:46;9.90;99.90
57652;DHT22;43480;53.116;6.734;2023-04-24T06:19:11;9.90;99.90
57652;DHT22;43480;53.116;6.734;2023-04-24T06:21:37;9.90;99.90
57652;DHT22;43480;53.116;6.734;2023-04-24T06:24:03;9.90;99.90
57652;DHT22;43480;53.116;6.734;2023-04-24T06:26:30;9.90;99.90
57652;DHT22;43480;53.116;6.734;2023-04-24T06:28:56;10.00;99.90
57652;DHT22;43480;53.116;6.734;2023-04-24T06:31:21;10.00;99.90
57652;DHT22;43480;53.116;6.734;2023-04-24T06:33:48;10.00;99.90
57652;DHT22;43480;53.116;6.734;2023-04-24T06:36:15;9.90;99.90
57652;DHT22;43480;53.116;6.734;2023-04-24T06:38:41;10.00;99.90
57652;DHT22;43480;53.116;6.734;2023-04-24T06:41:07;10.00;99.90
57652;DHT22;43480;53.116;6.734;2023-04-24T06:43:33;10.00;99.90
57652;DHT22;43480;53.116;6.734;2023-04-24T06:45:59;10.00;99.90
57652;DHT22;43480;53.116;6.734;2023-04-24T06:48:26;10.10;99.90
57652;DHT22;43480;53.116;6.734;2023-04-24T06:50:51;10.10;99.90
57652;DHT22;43480;53.116;6.734;2023-04-24T06:53:17;10.20;99.90
57652;DHT22;43480;53.116;6.734;2023-04-24T06:55:43;10.20;99.90
57652;DHT22;43480;53.116;6.734;2023-04-24T06:58:11;10.20;99.90
57652;DHT22;43480;53.116;6.734;2023-04-24T07:00:38;10.30;99.90
57652;DHT22;43480;53.116;6.734;2023-04-24T07:03:04;10.30;99.90
57652;DHT22;43480;53.116;6.734;2023-04-24T07:05:33;10.30;99.90
57652;DHT22;43480;53.116;6.734;2023-04-24T07:08:00;10.20;99.90
57652;DHT22;43480;53.116;6.734;2023-04-24T07:10:27;10.30;99.90
57652;DHT22;43480;53.116;6.734;2023-04-24T07:12:54;10.30;99.90
57652;DHT22;43480;53.116;6.734;2023-04-24T07:15:21;10.20;99.90
57652;DHT22;43480;53.116;6.734;2023-04-24T07:17:46;10.30;99.90
57652;DHT22;43480;53.116;6.734;2023-04-24T07:20:12;10.20;99.90
57652;DHT22;43480;53.116;6.734;2023-04-24T07:22:39;10.20;99.90
57652;DHT22;43480;53.116;6.734;2023-04-24T07:25:06;10.20;99.90
57652;DHT22;43480;53.116;6.734;2023-04-24T07:27:32;10.20;99.90
57652;DHT22;43480;53.116;6.734;2023-04-24T07:29:58;10.30;99.90
57652;DHT22;43480;53.116;6.734;2023-04-24T07:32:23;10.30;99.90
57652;DHT22;43480;53.116;6.734;2023-04-24T07:34:49;10.30;99.90
57652;DHT22;43480;53.116;6.734;2023-04-24T07:37:15;10.30;99.90
57652;DHT22;43480;53.116;6.734;2023-04-24T07:39:40;10.20;99.90
57652;DHT22;43480;53.116;6.734;2023-04-24T07:42:06;10.20;99.90
57652;DHT22;43480;53.116;6.734;2023-04-24T07:44:32;10.20;99.90
57652;DHT22;43480;53.116;6.734;2023-04-24T07:46:57;10.10;99.90
57652;DHT22;43480;53.116;6.734;2023-04-24T07:49:23;10.00;99.90
57652;DHT22;43480;53.116;6.734;2023-04-24T07:51:49;9.90;99.90
57652;DHT22;43480;53.116;6.734;2023-04-24T07:54:15;9.90;99.90
57652;DHT22;43480;53.116;6.734;2023-04-24T07:56:41;9.90;99.90
57652;DHT22;43480;53.116;6.734;2023-04-24T07:59:08;9.90;99.90
57652;DHT22;43480;53.116;6.734;2023-04-24T08:01:35;9.90;99.90
57652;DHT22;43480;53.116;6.734;2023-04-24T08:04:01;9.90;99.90
57652;DHT22;43480;53.116;6.734;2023-04-24T08:06:27;9.90;99.90
57652;DHT22;43480;53.116;6.734;2023-04-24T08:08:57;9.80;99.90
57652;DHT22;43480;53.116;6.734;2023-04-24T08:11:24;9.90;99.90
57652;DHT22;43480;53.116;6.734;2023-04-24T08:13:49;9.90;99.90
57652;DHT22;43480;53.116;6.734;2023-04-24T08:16:15;9.90;99.90
57652;DHT22;43480;53.116;6.734;2023-04-24T08:18:41;10.00;99.90
57652;DHT22;43480;53.116;6.734;2023-04-24T08:21:07;9.90;99.90
57652;DHT22;43480;53.116;6.734;2023-04-24T08:23:32;9.90;99.90
57652;DHT22;43480;53.116;6.734;2023-04-24T08:25:58;9.80;99.90
57652;DHT22;43480;53.116;6.734;2023-04-24T08:28:24;9.80;99.90
57652;DHT22;43480;53.116;6.734;2023-04-24T08:30:49;9.70;99.90
57652;DHT22;43480;53.116;6.734;2023-04-24T08:33:21;9.70;99.90
57652;DHT22;43480;53.116;6.734;2023-04-24T08:35:46;9.70;99.90
57652;DHT22;43480;53.116;6.734;2023-04-24T08:38:12;9.70;99.90
57652;DHT22;43480;53.116;6.734;2023-04-24T08:40:37;9.70;99.90
57652;DHT22;43480;53.116;6.734;2023-04-24T08:43:04;9.60;99.90
57652;DHT22;43480;53.116;6.734;2023-04-24T08:45:30;9.60;99.90
57652;DHT22;43480;53.116;6.734;2023-04-24T08:47:58;9.70;99.90
57652;DHT22;43480;53.116;6.734;2023-04-24T08:50:24;9.60;99.90
57652;DHT22;43480;53.116;6.734;2023-04-24T08:52:51;9.60;99.90
57652;DHT22;43480;53.116;6.734;2023-04-24T08:55:19;9.70;99.90
57652;DHT22;43480;53.116;6.734;2023-04-24T08:57:51;9.60;99.90
57652;DHT22;43480;53.116;6.734;2023-04-24T09:00:20;9.60;99.90
57652;DHT22;43480;53.116;6.734;2023-04-24T09:02:47;9.50;99.90
57652;DHT22;43480;53.116;6.734;2023-04-24T09:05:14;9.50;99.90
57652;DHT22;43480;53.116;6.734;2023-04-24T09:07:45;9.50;99.90
57652;DHT22;43480;53.116;6.734;2023-04-24T09:10:15;9.50;99.90
57652;DHT22;43480;53.116;6.734;2023-04-24T09:12:41;9.40;99.90
57652;DHT22;43480;53.116;6.734;2023-04-24T09:15:08;9.40;99.90
57652;DHT22;43480;53.116;6.734;2023-04-24T09:17:34;9.40;99.90
57652;DHT22;43480;53.116;6.734;2023-04-24T09:20:01;9.30;99.90
57652;DHT22;43480;53.116;6.734;2023-04-24T09:22:30;9.30;99.90
57652;DHT22;43480;53.116;6.734;2023-04-24T09:25:08;9.30;99.90
57652;DHT22;43480;53.116;6.734;2023-04-24T09:27:35;9.20;99.90
57652;DHT22;43480;53.116;6.734;2023-04-24T09:30:01;9.20;99.90
57652;DHT22;43480;53.116;6.734;2023-04-24T09:32:27;9.20;99.90
57652;DHT22;43480;53.116;6.734;2023-04-24T09:35:12;9.20;99.90
57652;DHT22;43480;53.116;6.734;2023-04-24T09:37:43;9.10;99.90
57652;DHT22;43480;53.116;6.734;2023-04-24T09:40:20;9.10;99.90
57652;DHT22;43480;53.116;6.734;2023-04-24T09:42:53;9.10;99.90
57652;DHT22;43480;53.116;6.734;2023-04-24T09:45:20;9.10;99.90
57652;DHT22;43480;53.116;6.734;2023-04-24T09:47:46;9.10;99.90
57652;DHT22;43480;53.116;6.734;2023-04-24T09:50:17;9.00;99.90
57652;DHT22;43480;53.116;6.734;2023-04-24T09:52:45;9.00;99.90
57652;DHT22;43480;53.116;6.734;2023-04-24T09:55:19;8.90;99.90
57652;DHT22;43480;53.116;6.734;2023-04-24T09:57:56;8.90;99.90
57652;DHT22;43480;53.116;6.734;2023-04-24T10:00:27;8.90;99.90
57652;DHT22;43480;53.116;6.734;2023-04-24T10:03:00;8.90;99.90
57652;DHT22;43480;53.116;6.734;2023-04-24T10:10:29;8.70;99.90
57652;DHT22;43480;53.116;6.734;2023-04-24T10:12:55;8.70;99.90
57652;DHT22;43480;53.116;6.734;2023-04-24T10:15:21;8.70;99.90
57652;DHT22;43480;53.116;6.734;2023-04-24T10:17:51;8.70;99.90
57652;DHT22;43480;53.116;6.734;2023-04-24T10:20:22;8.70;99.90
57652;DHT22;43480;53.116;6.734;2023-04-24T10:22:50;8.90;99.90
57652;DHT22;43480;53.116;6.734;2023-04-24T10:25:20;9.00;99.90
57652;DHT22;43480;53.116;6.734;2023-04-24T10:27:47;9.10;99.90
57652;DHT22;43480;53.116;6.734;2023-04-24T10:30:13;9.30;99.90
57652;DHT22;43480;53.116;6.734;2023-04-24T10:32:39;9.50;99.90
57652;DHT22;43480;53.116;6.734;2023-04-24T10:35:09;9.70;99.90
57652;DHT22;43480;53.116;6.734;2023-04-24T10:37:39;9.80;99.90
57652;DHT22;43480;53.116;6.734;2023-04-24T10:40:06;9.90;99.90
57652;DHT22;43480;53.116;6.734;2023-04-24T10:42:33;9.90;99.90
57652;DHT22;43480;53.116;6.734;2023-04-24T10:44:59;9.90;99.90
57652;DHT22;43480;53.116;6.734;2023-04-24T10:47:27;9.90;99.90
57652;DHT22;43480;53.116;6.734;2023-04-24T10:49:53;10.00;99.90
57652;DHT22;43480;53.116;6.734;2023-04-24T10:52:19;10.00;99.90
57652;DHT22;43480;53.116;6.734;2023-04-24T10:54:46;9.90;99.90
57652;DHT22;43480;53.116;6.734;2023-04-24T11:00:09;9.80;99.90
57652;DHT22;43480;53.116;6.734;2023-04-24T11:02:39;9.70;99.90
57652;DHT22;43480;53.116;6.734;2023-04-24T11:05:06;9.80;99.90
57652;DHT22;43480;53.116;6.734;2023-04-24T11:08:10;9.80;99.90
57652;DHT22;43480;53.116;6.734;2023-04-24T11:11:00;9.80;99.90
57652;DHT22;43480;53.116;6.734;2023-04-24T11:19:03;9.90;99.90
57652;DHT22;43480;53.116;6.734;2023-04-24T11:21:39;9.90;99.90
57652;DHT22;43480;53.116;6.734;2023-04-24T11:24:25;10.00;99.90
57652;DHT22;43480;53.116;6.734;2023-04-24T11:26:53;10.10;99.90
57652;DHT22;43480;53.116;6.734;2023-04-24T11:29:20;10.10;99.90
57652;DHT22;43480;53.116;6.734;2023-04-24T11:31:47;10.00;99.90
57652;DHT22;43480;53.116;6.734;2023-04-24T11:34:17;10.10;99.90
57652;DHT22;43480;53.116;6.734;2023-04-24T11:36:44;10.00;99.90
57652;DHT22;43480;53.116;6.734;2023-04-24T11:39:11;10.00;99.90
57652;DHT22;43480;53.116;6.734;2023-04-24T11:41:37;10.00;99.90
57652;DHT22;43480;53.116;6.734;2023-04-24T11:44:03;10.00;99.90
57652;DHT22;43480;53.116;6.734;2023-04-24T11:46:31;9.90;99.90
57652;DHT22;43480;53.116;6.734;2023-04-24T11:48:58;9.90;99.90
57652;DHT22;43480;53.116;6.734;2023-04-24T11:51:25;9.80;99.90
57652;DHT22;43480;53.116;6.734;2023-04-24T11:53:52;9.70;99.90
57652;DHT22;43480;53.116;6.734;2023-04-24T11:56:18;9.70;99.90
57652;DHT22;43480;53.116;6.734;2023-04-24T11:58:45;9.70;99.90
57652;DHT22;43480;53.116;6.734;2023-04-24T12:01:11;9.80;99.90
57652;DHT22;43480;53.116;6.734;2023-04-24T12:03:37;9.80;99.90
57652;DHT22;43480;53.116;6.734;2023-04-24T12:06:10;9.90;99.90
57652;DHT22;43480;53.116;6.734;2023-04-24T12:08:36;10.00;99.90
57652;DHT22;43480;53.116;6.734;2023-04-24T12:11:04;10.00;99.90
57652;DHT22;43480;53.116;6.734;2023-04-24T12:13:30;10.00;99.90
57652;DHT22;43480;53.116;6.734;2023-04-24T12:16:01;9.90;99.90
57652;DHT22;43480;53.116;6.734;2023-04-24T12:18:27;9.80;99.90
57652;DHT22;43480;53.116;6.734;2023-04-24T12:20:52;9.80;99.90
57652;DHT22;43480;53.116;6.734;2023-04-24T12:23:34;9.70;99.90
57652;DHT22;43480;53.116;6.734;2023-04-24T12:26:06;9.60;99.90
57652;DHT22;43480;53.116;6.734;2023-04-24T12:28:36;9.50;99.90
57652;DHT22;43480;53.116;6.734;2023-04-24T12:31:02;9.50;99.90
57652;DHT22;43480;53.116;6.734;2023-04-24T12:33:28;9.50;99.90
57652;DHT22;43480;53.116;6.734;2023-04-24T12:35:57;9.50;99.90
57652;DHT22;43480;53.116;6.734;2023-04-24T12:38:25;9.50;99.90
57652;DHT22;43480;53.116;6.734;2023-04-24T12:41:08;9.50;99.90
57652;DHT22;43480;53.116;6.734;2023-04-24T12:43:34;9.60;99.90
57652;DHT22;43480;53.116;6.734;2023-04-24T12:46:00;9.70;99.90
57652;DHT22;43480;53.116;6.734;2023-04-24T12:48:27;9.80;99.90
57652;DHT22;43480;53.116;6.734;2023-04-24T12:50:52;9.90;99.90
57652;DHT22;43480;53.116;6.734;2023-04-24T12:53:18;9.90;99.90
57652;DHT22;43480;53.116;6.734;2023-04-24T12:55:44;10.00;99.90
57652;DHT22;43480;53.116;6.734;2023-04-24T12:58:10;10.10;99.90
57652;DHT22;43480;53.116;6.734;2023-04-24T13:00:36;10.00;99.90
57652;DHT22;43480;53.116;6.734;2023-04-24T13:03:03;9.90;99.90
57652;DHT22;43480;53.116;6.734;2023-04-24T13:05:29;9.90;99.90
57652;DHT22;43480;53.116;6.734;2023-04-24T13:07:55;9.90;99.90
57652;DHT22;43480;53.116;6.734;2023-04-24T13:10:20;10.00;99.90
57652;DHT22;43480;53.116;6.734;2023-04-24T13:12:46;10.00;99.90
57652;DHT22;43480;53.116;6.734;2023-04-24T13:15:12;10.10;99.90
57652;DHT22;43480;53.116;6.734;2023-04-24T13:17:38;10.10;99.90
57652;DHT22;43480;53.116;6.734;2023-04-24T13:20:04;10.10;99.90
57652;DHT22;43480;53.116;6.734;2023-04-24T13:22:29;10.00;99.90
57652;DHT22;43480;53.116;6.734;2023-04-24T13:24:55;9.90;99.90
57652;DHT22;43480;53.116;6.734;2023-04-24T13:27:21;9.80;99.90
57652;DHT22;43480;53.116;6.734;2023-04-24T13:29:47;9.70;99.90
57652;DHT22;43480;53.116;6.734;2023-04-24T13:32:13;9.70;99.90
57652;DHT22;43480;53.116;6.734;2023-04-24T13:34:38;9.70;99.90
57652;DHT22;43480;53.116;6.734;2023-04-24T13:37:05;9.70;99.90
57652;DHT22;43480;53.116;6.734;2023-04-24T13:39:31;9.70;99.90
57652;DHT22;43480;53.116;6.734;2023-04-24T13:41:57;9.80;99.90
57652;DHT22;43480;53.116;6.734;2023-04-24T13:44:23;9.90;99.90
57652;DHT22;43480;53.116;6.734;2023-04-24T13:46:51;10.00;99.90
57652;DHT22;43480;53.116;6.734;2023-04-24T13:49:17;10.00;99.90
57652;DHT22;43480;53.116;6.734;2023-04-24T13:51:43;10.00;99.90
57652;DHT22;43480;53.116;6.734;2023-04-24T13:54:09;10.10;99.90
57652;DHT22;43480;53.116;6.734;2023-04-24T13:56:35;10.20;99.90
57652;DHT22;43480;53.116;6.734;2023-04-24T13:59:01;10.10;99.90
57652;DHT22;43480;53.116;6.734;2023-04-24T14:01:27;10.20;99.90
57652;DHT22;43480;53.116;6.734;2023-04-24T14:03:54;10.10;99.90
57652;DHT22;43480;53.116;6.734;2023-04-24T14:06:20;10.10;99.90
57652;DHT22;43480;53.116;6.734;2023-04-24T14:08:47;10.00;99.90
57652;DHT22;43480;53.116;6.734;2023-04-24T14:11:12;10.00;99.90
57652;DHT22;43480;53.116;6.734;2023-04-24T14:13:39;10.00;99.90
57652;DHT22;43480;53.116;6.734;2023-04-24T14:16:06;10.00;99.90
57652;DHT22;43480;53.116;6.734;2023-04-24T14:18:31;10.00;99.90
57652;DHT22;43480;53.116;6.734;2023-04-24T14:20:57;9.90;99.90
57652;DHT22;43480;53.116;6.734;2023-04-24T14:23:23;9.90;99.90
57652;DHT22;43480;53.116;6.734;2023-04-24T14:25:49;9.70;99.90
57652;DHT22;43480;53.116;6.734;2023-04-24T14:28:18;9.70;99.90
57652;DHT22;43480;53.116;6.734;2023-04-24T14:30:43;9.50;99.90
57652;DHT22;43480;53.116;6.734;2023-04-24T14:33:09;9.40;99.90
57652;DHT22;43480;53.116;6.734;2023-04-24T14:35:35;9.30;99.90
57652;DHT22;43480;53.116;6.734;2023-04-24T14:38:01;9.30;99.90
57652;DHT22;43480;53.116;6.734;2023-04-24T14:40:27;9.30;99.90
57652;DHT22;43480;53.116;6.734;2023-04-24T14:42:52;9.30;99.90
57652;DHT22;43480;53.116;6.734;2023-04-24T14:45:18;9.20;99.90
57652;DHT22;43480;53.116;6.734;2023-04-24T14:47:45;9.20;99.90
57652;DHT22;43480;53.116;6.734;2023-04-24T14:50:10;9.20;99.90
57652;DHT22;43480;53.116;6.734;2023-04-24T14:52:37;9.30;99.90
57652;DHT22;43480;53.116;6.734;2023-04-24T14:55:03;9.40;99.90
57652;DHT22;43480;53.116;6.734;2023-04-24T14:57:29;9.50;99.90
57652;DHT22;43480;53.116;6.734;2023-04-24T14:59:55;9.60;99.90
57652;DHT22;43480;53.116;6.734;2023-04-24T15:02:21;9.60;99.90
57652;DHT22;43480;53.116;6.734;2023-04-24T15:04:46;9.60;99.90
57652;DHT22;43480;53.116;6.734;2023-04-24T15:07:12;9.60;99.90
57652;DHT22;43480;53.116;6.734;2023-04-24T15:09:37;9.60;99.90
57652;DHT22;43480;53.116;6.734;2023-04-24T15:12:03;9.70;99.90
57652;DHT22;43480;53.116;6.734;2023-04-24T15:14:29;9.70;99.90
57652;DHT22;43480;53.116;6.734;2023-04-24T15:16:55;9.70;99.90
57652;DHT22;43480;53.116;6.734;2023-04-24T15:19:20;9.60;99.90
57652;DHT22;43480;53.116;6.734;2023-04-24T15:21:46;9.60;99.90
57652;DHT22;43480;53.116;6.734;2023-04-24T15:24:12;9.60;99.90
57652;DHT22;43480;53.116;6.734;2023-04-24T15:26:37;9.50;99.90
57652;DHT22;43480;53.116;6.734;2023-04-24T15:29:03;9.50;99.90
57652;DHT22;43480;53.116;6.734;2023-04-24T15:31:28;9.50;99.90
57652;DHT22;43480;53.116;6.734;2023-04-24T15:33:54;9.50;99.90
57652;DHT22;43480;53.116;6.734;2023-04-24T15:36:20;9.50;99.90
57652;DHT22;43480;53.116;6.734;2023-04-24T15:38:46;9.50;99.90
57652;DHT22;43480;53.116;6.734;2023-04-24T15:41:12;9.50;99.90
57652;DHT22;43480;53.116;6.734;2023-04-24T15:43:37;9.50;99.90
57652;DHT22;43480;53.116;6.734;2023-04-24T15:46:05;9.40;99.90
57652;DHT22;43480;53.116;6.734;2023-04-24T15:48:31;9.40;99.90
57652;DHT22;43480;53.116;6.734;2023-04-24T15:50:56;9.40;99.90